Check out our new PWSWeather beta!
PWSweather.com
Personal Weather Stations
Station Observations

SkegnessGB

Lat: 53.147585, Lon: 0.345774

Elevation: 18

Station Type: Fine Offset WH3080

http://www.skegnessweather.info/

High Low Average
Temperature 45.7°F7.6°C 36.3°F2.4°C 41.2°F5.1°C
Dew Point 42.3°F5.7°C 33.0°F0.6°C 37.7°F3.2°C
Winds 3.6 mph 5.8 kmh Calm Calm 1.0 mph ESE1.6 kmh ESE
Wind Gusts 8.4 mph13.5 kmh -- 3.0 mph4.8 kmh
Humidity 92% 82% 87%
Pressure 30.54 in1034.2 mb 30.37 in1028.4 mb -
Precipitation 0.00 in0.0 mm - -
Hour Temp Dew Point Humidity Winds Wind Gusts Pressure Precip Precip Rate Daily Precip Total
12:00 AM 41.4°F5.2°C 37.5°F3.1°C 86% 0.1 mph W0.2 kmh W 1.7 mph2.7 kmh 30.37 in1028.4 mb 0.00 in0.0 mm 0.00 in0.0 mm 0.00 in0.0 mm
12:10 AM 41.4°F5.2°C 37.5°F3.1°C 86% Calm Calm 1.7 mph2.7 kmh 30.37 in1028.4 mb 0.00 in0.0 mm 0.00 in0.0 mm 0.00 in0.0 mm
12:20 AM 41.2°F5.1°C 37.3°F2.9°C 86% Calm Calm 0.7 mph1.1 kmh 30.38 in1028.8 mb 0.00 in0.0 mm 0.00 in0.0 mm 0.00 in0.0 mm
12:30 AM 41.2°F5.1°C 37.3°F2.9°C 86% Calm Calm 0.7 mph1.1 kmh 30.38 in1028.8 mb 0.00 in0.0 mm 0.00 in0.0 mm 0.00 in0.0 mm
12:40 AM 41.2°F5.1°C 37.3°F2.9°C 86% Calm Calm 0.7 mph1.1 kmh 30.38 in1028.8 mb 0.00 in0.0 mm 0.00 in0.0 mm 0.00 in0.0 mm
12:50 AM 41.4°F5.2°C 37.8°F3.2°C 87% Calm Calm 0.7 mph1.1 kmh 30.39 in1029.1 mb 0.00 in0.0 mm 0.00 in0.0 mm 0.00 in0.0 mm
01:00 AM 41.5°F5.3°C 38.0°F3.3°C 87% Calm Calm 0.7 mph1.1 kmh 30.39 in1029.1 mb 0.00 in0.0 mm 0.00 in0.0 mm 0.00 in0.0 mm
01:10 AM 41.9°F5.5°C 38.3°F3.5°C 87% Calm Calm -- 30.40 in1029.5 mb 0.00 in0.0 mm 0.00 in0.0 mm 0.00 in0.0 mm
01:20 AM 42.4°F5.8°C 39.1°F3.9°C 88% 0.4 mph NE0.6 kmh NE 1.7 mph2.7 kmh 30.40 in1029.5 mb 0.00 in0.0 mm 0.00 in0.0 mm 0.00 in0.0 mm
01:30 AM 43.0°F6.1°C 39.7°F4.3°C 88% 1.0 mph NE1.6 kmh NE 1.7 mph2.7 kmh 30.40 in1029.5 mb 0.00 in0.0 mm 0.00 in0.0 mm 0.00 in0.0 mm
01:40 AM 43.3°F6.3°C 40.3°F4.6°C 89% 1.0 mph NNE1.6 kmh NNE 1.7 mph2.7 kmh 30.40 in1029.5 mb 0.00 in0.0 mm 0.00 in0.0 mm 0.00 in0.0 mm
01:50 AM 43.7°F6.5°C 40.7°F4.8°C 89% 0.8 mph NNE1.3 kmh NNE 2.5 mph4.0 kmh 30.40 in1029.5 mb 0.00 in0.0 mm 0.00 in0.0 mm 0.00 in0.0 mm
02:00 AM 43.9°F6.6°C 40.8°F4.9°C 89% 1.3 mph NNE2.1 kmh NNE 2.5 mph4.0 kmh 30.40 in1029.5 mb 0.00 in0.0 mm 0.00 in0.0 mm 0.00 in0.0 mm
02:10 AM 44.2°F6.8°C 41.5°F5.3°C 90% 2.2 mph NE3.5 kmh NE 3.4 mph5.5 kmh 30.41 in1029.8 mb 0.00 in0.0 mm 0.00 in0.0 mm 0.00 in0.0 mm
02:20 AM 44.4°F6.9°C 41.7°F5.4°C 90% 3.1 mph N5.0 kmh N 4.2 mph6.8 kmh 30.41 in1029.8 mb 0.00 in0.0 mm 0.00 in0.0 mm 0.00 in0.0 mm
02:30 AM 44.2°F6.8°C 41.2°F5.1°C 89% 2.7 mph NNE4.3 kmh NNE 3.4 mph5.5 kmh 30.42 in1030.1 mb 0.00 in0.0 mm 0.00 in0.0 mm 0.00 in0.0 mm
02:40 AM 44.1°F6.7°C 41.0°F5.0°C 89% 2.8 mph N4.5 kmh N 3.4 mph5.5 kmh 30.42 in1030.1 mb 0.00 in0.0 mm 0.00 in0.0 mm 0.00 in0.0 mm
02:50 AM 43.5°F6.4°C 40.2°F4.6°C 88% 2.3 mph NNE3.7 kmh NNE 3.4 mph5.5 kmh 30.43 in1030.5 mb 0.00 in0.0 mm 0.00 in0.0 mm 0.00 in0.0 mm
03:00 AM 43.0°F6.1°C 39.7°F4.3°C 88% 2.2 mph N3.5 kmh N 3.4 mph5.5 kmh 30.43 in1030.5 mb 0.00 in0.0 mm 0.00 in0.0 mm 0.00 in0.0 mm
03:10 AM 42.4°F5.8°C 39.1°F3.9°C 88% 2.8 mph N4.5 kmh N 2.5 mph4.0 kmh 30.43 in1030.5 mb 0.00 in0.0 mm 0.00 in0.0 mm 0.00 in0.0 mm
03:20 AM 42.3°F5.7°C 39.0°F3.9°C 88% 1.8 mph NNE2.9 kmh NNE 3.4 mph5.5 kmh 30.43 in1030.5 mb 0.00 in0.0 mm 0.00 in0.0 mm 0.00 in0.0 mm
03:30 AM 42.1°F5.6°C 38.5°F3.6°C 87% 1.8 mph NE2.9 kmh NE 3.4 mph5.5 kmh 30.43 in1030.5 mb 0.00 in0.0 mm 0.00 in0.0 mm 0.00 in0.0 mm
03:40 AM 41.7°F5.4°C 38.1°F3.4°C 87% 0.7 mph NNE1.1 kmh NNE 1.7 mph2.7 kmh 30.43 in1030.5 mb 0.00 in0.0 mm 0.00 in0.0 mm 0.00 in0.0 mm
03:50 AM 41.4°F5.2°C 37.8°F3.2°C 87% 1.0 mph N1.6 kmh N 2.5 mph4.0 kmh 30.43 in1030.5 mb 0.00 in0.0 mm 0.00 in0.0 mm 0.00 in0.0 mm
04:00 AM 40.6°F4.8°C 37.1°F2.8°C 87% 0.1 mph N0.2 kmh N 0.7 mph1.1 kmh 30.44 in1030.8 mb 0.00 in0.0 mm 0.00 in0.0 mm 0.00 in0.0 mm
04:10 AM 39.9°F4.4°C 36.4°F2.4°C 87% Calm Calm 0.7 mph1.1 kmh 30.44 in1030.8 mb 0.00 in0.0 mm 0.00 in0.0 mm 0.00 in0.0 mm
04:20 AM 39.2°F4.0°C 35.7°F2.1°C 87% Calm Calm 0.7 mph1.1 kmh 30.44 in1030.8 mb 0.00 in0.0 mm 0.00 in0.0 mm 0.00 in0.0 mm
04:30 AM 39.2°F4.0°C 35.7°F2.1°C 87% 0.6 mph NNE1.0 kmh NNE 1.7 mph2.7 kmh 30.44 in1030.8 mb 0.00 in0.0 mm 0.00 in0.0 mm 0.00 in0.0 mm
04:40 AM 38.8°F3.8°C 35.3°F1.8°C 87% Calm Calm -- 30.44 in1030.8 mb 0.00 in0.0 mm 0.00 in0.0 mm 0.00 in0.0 mm
04:50 AM 38.1°F3.4°C 34.3°F1.3°C 86% Calm Calm -- 30.45 in1031.2 mb 0.00 in0.0 mm 0.00 in0.0 mm 0.00 in0.0 mm
05:00 AM 37.6°F3.1°C 33.8°F1.0°C 86% Calm Calm 0.7 mph1.1 kmh 30.45 in1031.2 mb 0.00 in0.0 mm 0.00 in0.0 mm 0.00 in0.0 mm
05:10 AM 37.4°F3.0°C 33.6°F0.9°C 86% Calm Calm 0.7 mph1.1 kmh 30.45 in1031.2 mb 0.00 in0.0 mm 0.00 in0.0 mm 0.00 in0.0 mm
05:20 AM 37.2°F2.9°C 33.4°F0.8°C 86% Calm Calm -- 30.45 in1031.2 mb 0.00 in0.0 mm 0.00 in0.0 mm 0.00 in0.0 mm
05:30 AM 36.9°F2.7°C 33.1°F0.6°C 86% Calm Calm -- 30.45 in1031.2 mb 0.00 in0.0 mm 0.00 in0.0 mm 0.00 in0.0 mm
05:40 AM 36.9°F2.7°C 33.4°F0.8°C 87% Calm Calm -- 30.45 in1031.2 mb 0.00 in0.0 mm 0.00 in0.0 mm 0.00 in0.0 mm
05:50 AM 36.9°F2.7°C 33.4°F0.8°C 87% Calm Calm -- 30.45 in1031.2 mb 0.00 in0.0 mm 0.00 in0.0 mm 0.00 in0.0 mm
06:00 AM 36.9°F2.7°C 33.4°F0.8°C 87% 0.3 mph NNE0.5 kmh NNE 1.7 mph2.7 kmh 30.45 in1031.2 mb 0.00 in0.0 mm 0.00 in0.0 mm 0.00 in0.0 mm
06:10 AM 36.9°F2.7°C 33.4°F0.8°C 87% 0.7 mph NNE1.1 kmh NNE 2.5 mph4.0 kmh 30.45 in1031.2 mb 0.00 in0.0 mm 0.00 in0.0 mm 0.00 in0.0 mm
06:20 AM 36.7°F2.6°C 33.2°F0.7°C 87% 0.9 mph NNE1.4 kmh NNE 1.7 mph2.7 kmh 30.45 in1031.2 mb 0.00 in0.0 mm 0.00 in0.0 mm 0.00 in0.0 mm
06:30 AM 36.9°F2.7°C 33.4°F0.8°C 87% 1.8 mph NNE2.9 kmh NNE 3.4 mph5.5 kmh 30.46 in1031.5 mb 0.00 in0.0 mm 0.00 in0.0 mm 0.00 in0.0 mm
06:40 AM 36.7°F2.6°C 33.2°F0.7°C 87% Calm Calm 0.7 mph1.1 kmh 30.46 in1031.5 mb 0.00 in0.0 mm 0.00 in0.0 mm 0.00 in0.0 mm
06:50 AM 36.7°F2.6°C 33.2°F0.7°C 87% 0.9 mph NNE1.4 kmh NNE 2.5 mph4.0 kmh 30.46 in1031.5 mb 0.00 in0.0 mm 0.00 in0.0 mm 0.00 in0.0 mm
07:00 AM 36.9°F2.7°C 33.4°F0.8°C 87% 0.9 mph NE1.4 kmh NE 2.5 mph4.0 kmh 30.47 in1031.8 mb 0.00 in0.0 mm 0.00 in0.0 mm 0.00 in0.0 mm
07:10 AM 36.5°F2.5°C 33.0°F0.6°C 87% Calm Calm -- 30.47 in1031.8 mb 0.00 in0.0 mm 0.00 in0.0 mm 0.00 in0.0 mm
07:20 AM 36.5°F2.5°C 33.0°F0.6°C 87% Calm Calm -- 30.47 in1031.8 mb 0.00 in0.0 mm 0.00 in0.0 mm 0.00 in0.0 mm
07:30 AM 36.5°F2.5°C 33.3°F0.7°C 88% 0.1 mph NE0.2 kmh NE 1.7 mph2.7 kmh 30.48 in1032.2 mb 0.00 in0.0 mm 0.00 in0.0 mm 0.00 in0.0 mm
07:40 AM 36.5°F2.5°C 33.3°F0.7°C 88% Calm Calm -- 30.48 in1032.2 mb 0.00 in0.0 mm 0.00 in0.0 mm 0.00 in0.0 mm
07:50 AM 36.3°F2.4°C 33.1°F0.6°C 88% Calm Calm -- 30.48 in1032.2 mb 0.00 in0.0 mm 0.00 in0.0 mm 0.00 in0.0 mm
08:00 AM 36.3°F2.4°C 33.1°F0.6°C 88% Calm Calm 0.7 mph1.1 kmh 30.49 in1032.5 mb 0.00 in0.0 mm 0.00 in0.0 mm 0.00 in0.0 mm
08:10 AM 36.3°F2.4°C 33.1°F0.6°C 88% Calm Calm 0.7 mph1.1 kmh 30.49 in1032.5 mb 0.00 in0.0 mm 0.00 in0.0 mm 0.00 in0.0 mm
08:20 AM 36.5°F2.5°C 33.3°F0.7°C 88% 0.9 mph NNE1.4 kmh NNE 1.7 mph2.7 kmh 30.50 in1032.8 mb 0.00 in0.0 mm 0.00 in0.0 mm 0.00 in0.0 mm
08:30 AM 36.5°F2.5°C 33.3°F0.7°C 88% 0.3 mph NE0.5 kmh NE 1.7 mph2.7 kmh 30.50 in1032.8 mb 0.00 in0.0 mm 0.00 in0.0 mm 0.00 in0.0 mm
08:40 AM 36.5°F2.5°C 33.3°F0.7°C 88% 1.2 mph NE1.9 kmh NE 2.5 mph4.0 kmh 30.50 in1032.8 mb 0.00 in0.0 mm 0.00 in0.0 mm 0.00 in0.0 mm
08:50 AM 36.5°F2.5°C 33.3°F0.7°C 88% 0.9 mph NE1.4 kmh NE 1.7 mph2.7 kmh 30.50 in1032.8 mb 0.00 in0.0 mm 0.00 in0.0 mm 0.00 in0.0 mm
09:00 AM 36.5°F2.5°C 33.3°F0.7°C 88% 0.7 mph NNE1.1 kmh NNE 1.7 mph2.7 kmh 30.51 in1033.2 mb 0.00 in0.0 mm 0.00 in0.0 mm 0.00 in0.0 mm
09:10 AM 36.5°F2.5°C 33.3°F0.7°C 88% Calm Calm 0.7 mph1.1 kmh 30.51 in1033.2 mb 0.00 in0.0 mm 0.00 in0.0 mm 0.00 in0.0 mm
09:20 AM 36.7°F2.6°C 33.7°F0.9°C 89% Calm Calm -- 30.52 in1033.5 mb 0.00 in0.0 mm 0.00 in0.0 mm 0.00 in0.0 mm
09:30 AM 37.0°F2.8°C 34.1°F1.2°C 89% Calm Calm -- 30.52 in1033.5 mb 0.00 in0.0 mm 0.00 in0.0 mm 0.00 in0.0 mm
09:40 AM 37.4°F3.0°C 34.5°F1.4°C 89% Calm Calm -- 30.52 in1033.5 mb 0.00 in0.0 mm 0.00 in0.0 mm 0.00 in0.0 mm
09:50 AM 37.8°F3.2°C 34.8°F1.6°C 89% Calm Calm 0.7 mph1.1 kmh 30.53 in1033.9 mb 0.00 in0.0 mm 0.00 in0.0 mm 0.00 in0.0 mm
10:00 AM 38.3°F3.5°C 35.6°F2.0°C 90% Calm Calm 0.7 mph1.1 kmh 30.54 in1034.2 mb 0.00 in0.0 mm 0.00 in0.0 mm 0.00 in0.0 mm
10:10 AM 38.5°F3.6°C 35.8°F2.1°C 90% 0.4 mph N0.6 kmh N 1.7 mph2.7 kmh 30.53 in1033.9 mb 0.00 in0.0 mm 0.00 in0.0 mm 0.00 in0.0 mm
10:20 AM 38.8°F3.8°C 36.2°F2.3°C 90% 0.7 mph NNE1.1 kmh NNE 1.7 mph2.7 kmh 30.54 in1034.2 mb 0.00 in0.0 mm 0.00 in0.0 mm 0.00 in0.0 mm
10:30 AM 39.2°F4.0°C 36.5°F2.5°C 90% 0.2 mph N0.3 kmh N 1.7 mph2.7 kmh 30.53 in1033.9 mb 0.00 in0.0 mm 0.00 in0.0 mm 0.00 in0.0 mm
10:40 AM 39.9°F4.4°C 37.2°F2.9°C 90% Calm Calm -- 30.54 in1034.2 mb 0.00 in0.0 mm 0.00 in0.0 mm 0.00 in0.0 mm
10:50 AM 40.8°F4.9°C 38.1°F3.4°C 90% Calm Calm 0.7 mph1.1 kmh 30.54 in1034.2 mb 0.00 in0.0 mm 0.00 in0.0 mm 0.00 in0.0 mm
11:00 AM 41.7°F5.4°C 39.3°F4.1°C 91% Calm Calm -- 30.54 in1034.2 mb 0.00 in0.0 mm 0.00 in0.0 mm 0.00 in0.0 mm
11:10 AM 42.3°F5.7°C 39.8°F4.3°C 91% Calm Calm 0.7 mph1.1 kmh 30.54 in1034.2 mb 0.00 in0.0 mm 0.00 in0.0 mm 0.00 in0.0 mm
11:20 AM 43.0°F6.1°C 40.5°F4.7°C 91% 0.5 mph N0.8 kmh N 1.7 mph2.7 kmh 30.54 in1034.2 mb 0.00 in0.0 mm 0.00 in0.0 mm 0.00 in0.0 mm
11:30 AM 43.9°F6.6°C 41.4°F5.2°C 91% 0.3 mph NNW0.5 kmh NNW 1.7 mph2.7 kmh 30.53 in1033.9 mb 0.00 in0.0 mm 0.00 in0.0 mm 0.00 in0.0 mm
11:40 AM 44.4°F6.9°C 42.2°F5.7°C 92% 0.8 mph N1.3 kmh N 2.5 mph4.0 kmh 30.53 in1033.9 mb 0.00 in0.0 mm 0.00 in0.0 mm 0.00 in0.0 mm
11:50 AM 44.6°F7.0°C 41.0°F5.0°C 87% 0.8 mph N1.3 kmh N 1.7 mph2.7 kmh 30.53 in1033.9 mb 0.00 in0.0 mm 0.00 in0.0 mm 0.00 in0.0 mm
12:00 PM 44.8°F7.1°C 41.1°F5.1°C 87% 0.7 mph NNE1.1 kmh NNE 2.5 mph4.0 kmh 30.53 in1033.9 mb 0.00 in0.0 mm 0.00 in0.0 mm 0.00 in0.0 mm
12:10 PM 45.0°F7.2°C 41.3°F5.2°C 87% 1.1 mph N1.8 kmh N 4.2 mph6.8 kmh 30.53 in1033.9 mb 0.00 in0.0 mm 0.00 in0.0 mm 0.00 in0.0 mm
12:20 PM 45.1°F7.3°C 41.8°F5.4°C 88% 2.2 mph N3.5 kmh N 4.2 mph6.8 kmh 30.53 in1033.9 mb 0.00 in0.0 mm 0.00 in0.0 mm 0.00 in0.0 mm
12:30 PM 45.3°F7.4°C 42.0°F5.6°C 88% 3.2 mph N5.1 kmh N 4.2 mph6.8 kmh 30.53 in1033.9 mb 0.00 in0.0 mm 0.00 in0.0 mm 0.00 in0.0 mm
12:40 PM 45.3°F7.4°C 42.0°F5.6°C 88% 3.0 mph N4.8 kmh N 4.2 mph6.8 kmh 30.52 in1033.5 mb 0.00 in0.0 mm 0.00 in0.0 mm 0.00 in0.0 mm
12:50 PM 45.3°F7.4°C 42.0°F5.6°C 88% 2.6 mph N4.2 kmh N 4.2 mph6.8 kmh 30.52 in1033.5 mb 0.00 in0.0 mm 0.00 in0.0 mm 0.00 in0.0 mm
01:00 PM 45.5°F7.5°C 42.2°F5.7°C 88% 1.9 mph NNE3.1 kmh NNE 3.4 mph5.5 kmh 30.52 in1033.5 mb 0.00 in0.0 mm 0.00 in0.0 mm 0.00 in0.0 mm
01:10 PM 45.7°F7.6°C 42.3°F5.7°C 88% 1.3 mph N2.1 kmh N 3.4 mph5.5 kmh 30.51 in1033.2 mb 0.00 in0.0 mm 0.00 in0.0 mm 0.00 in0.0 mm
01:20 PM 45.7°F7.6°C 42.0°F5.6°C 87% 2.0 mph NNE3.2 kmh NNE 3.4 mph5.5 kmh 30.51 in1033.2 mb 0.00 in0.0 mm 0.00 in0.0 mm 0.00 in0.0 mm
01:30 PM 45.7°F7.6°C 42.0°F5.6°C 87% 0.6 mph N1.0 kmh N 1.7 mph2.7 kmh 30.50 in1032.8 mb 0.00 in0.0 mm 0.00 in0.0 mm 0.00 in0.0 mm
01:40 PM 45.3°F7.4°C 41.7°F5.4°C 87% 3.6 mph N5.8 kmh N 4.2 mph6.8 kmh 30.50 in1032.8 mb 0.00 in0.0 mm 0.00 in0.0 mm 0.00 in0.0 mm
01:50 PM 45.3°F7.4°C 41.4°F5.2°C 86% 3.1 mph N5.0 kmh N 4.9 mph7.9 kmh 30.50 in1032.8 mb 0.00 in0.0 mm 0.00 in0.0 mm 0.00 in0.0 mm
02:00 PM 45.3°F7.4°C 41.1°F5.1°C 85% 1.3 mph N2.1 kmh N 3.4 mph5.5 kmh 30.50 in1032.8 mb 0.00 in0.0 mm 0.00 in0.0 mm 0.00 in0.0 mm
02:10 PM 45.1°F7.3°C 40.6°F4.8°C 84% 1.9 mph N3.1 kmh N 3.4 mph5.5 kmh 30.50 in1032.8 mb 0.00 in0.0 mm 0.00 in0.0 mm 0.00 in0.0 mm
02:20 PM 45.0°F7.2°C 40.1°F4.5°C 83% 1.4 mph NNW2.3 kmh NNW 3.4 mph5.5 kmh 30.50 in1032.8 mb 0.00 in0.0 mm 0.00 in0.0 mm 0.00 in0.0 mm
02:30 PM 44.8°F7.1°C 39.6°F4.2°C 82% 1.5 mph NNE2.4 kmh NNE 4.2 mph6.8 kmh 30.50 in1032.8 mb 0.00 in0.0 mm 0.00 in0.0 mm 0.00 in0.0 mm
02:40 PM 44.6°F7.0°C 39.4°F4.1°C 82% 0.9 mph N1.4 kmh N 2.5 mph4.0 kmh 30.50 in1032.8 mb 0.00 in0.0 mm 0.00 in0.0 mm 0.00 in0.0 mm
02:50 PM 44.4°F6.9°C 40.5°F4.7°C 86% 1.5 mph N2.4 kmh N 3.4 mph5.5 kmh 30.50 in1032.8 mb 0.00 in0.0 mm 0.00 in0.0 mm 0.00 in0.0 mm
03:00 PM 44.4°F6.9°C 40.2°F4.6°C 85% 1.7 mph W2.7 kmh W 3.4 mph5.5 kmh 30.50 in1032.8 mb 0.00 in0.0 mm 0.00 in0.0 mm 0.00 in0.0 mm
03:10 PM 44.2°F6.8°C 40.0°F4.4°C 85% 0.1 mph WSW0.2 kmh WSW 1.7 mph2.7 kmh 30.50 in1032.8 mb 0.00 in0.0 mm 0.00 in0.0 mm 0.00 in0.0 mm
03:20 PM 44.1°F6.7°C 39.5°F4.2°C 84% 1.2 mph N1.9 kmh N 3.4 mph5.5 kmh 30.50 in1032.8 mb 0.00 in0.0 mm 0.00 in0.0 mm 0.00 in0.0 mm
03:30 PM 43.7°F6.5°C 39.2°F4.0°C 84% 1.9 mph N3.1 kmh N 3.4 mph5.5 kmh 30.50 in1032.8 mb 0.00 in0.0 mm 0.00 in0.0 mm 0.00 in0.0 mm
03:40 PM 43.5°F6.4°C 39.0°F3.9°C 84% 1.3 mph NNW2.1 kmh NNW 4.9 mph7.9 kmh 30.50 in1032.8 mb 0.00 in0.0 mm 0.00 in0.0 mm 0.00 in0.0 mm
03:50 PM 43.3°F6.3°C 38.8°F3.8°C 84% 0.7 mph NNW1.1 kmh NNW 1.7 mph2.7 kmh 30.50 in1032.8 mb 0.00 in0.0 mm 0.00 in0.0 mm 0.00 in0.0 mm
04:00 PM 43.2°F6.2°C 38.7°F3.7°C 84% 1.2 mph WNW1.9 kmh WNW 3.4 mph5.5 kmh 30.50 in1032.8 mb 0.00 in0.0 mm 0.00 in0.0 mm 0.00 in0.0 mm
04:10 PM 43.2°F6.2°C 38.7°F3.7°C 84% 2.2 mph SW3.5 kmh SW 4.2 mph6.8 kmh 30.49 in1032.5 mb 0.00 in0.0 mm 0.00 in0.0 mm 0.00 in0.0 mm
04:20 PM 43.2°F6.2°C 38.7°F3.7°C 84% 3.0 mph WNW4.8 kmh WNW 4.9 mph7.9 kmh 30.49 in1032.5 mb 0.00 in0.0 mm 0.00 in0.0 mm 0.00 in0.0 mm
04:30 PM 43.2°F6.2°C 38.7°F3.7°C 84% 2.2 mph W3.5 kmh W 4.2 mph6.8 kmh 30.49 in1032.5 mb 0.00 in0.0 mm 0.00 in0.0 mm 0.00 in0.0 mm
04:40 PM 43.0°F6.1°C 38.5°F3.6°C 84% 3.3 mph N5.3 kmh N 6.6 mph10.6 kmh 30.48 in1032.2 mb 0.00 in0.0 mm 0.00 in0.0 mm 0.00 in0.0 mm
04:50 PM 43.0°F6.1°C 38.8°F3.8°C 85% 3.3 mph S5.3 kmh S 4.9 mph7.9 kmh 30.49 in1032.5 mb 0.00 in0.0 mm 0.00 in0.0 mm 0.00 in0.0 mm
05:00 PM 42.8°F6.0°C 38.6°F3.7°C 85% 2.1 mph NW3.4 kmh NW 4.9 mph7.9 kmh 30.49 in1032.5 mb 0.00 in0.0 mm 0.00 in0.0 mm 0.00 in0.0 mm
05:10 PM 42.6°F5.9°C 38.4°F3.6°C 85% 3.3 mph WSW5.3 kmh WSW 3.4 mph5.5 kmh 30.49 in1032.5 mb 0.00 in0.0 mm 0.00 in0.0 mm 0.00 in0.0 mm
05:20 PM 42.6°F5.9°C 38.4°F3.6°C 85% 2.0 mph SSW3.2 kmh SSW 3.4 mph5.5 kmh 30.49 in1032.5 mb 0.00 in0.0 mm 0.00 in0.0 mm 0.00 in0.0 mm
05:30 PM 42.4°F5.8°C 38.2°F3.4°C 85% 2.2 mph ENE3.5 kmh ENE 8.4 mph13.5 kmh 30.49 in1032.5 mb 0.00 in0.0 mm 0.00 in0.0 mm 0.00 in0.0 mm
05:40 PM 42.4°F5.8°C 38.2°F3.4°C 85% 1.5 mph NW2.4 kmh NW 3.4 mph5.5 kmh 30.49 in1032.5 mb 0.00 in0.0 mm 0.00 in0.0 mm 0.00 in0.0 mm
05:50 PM 42.4°F5.8°C 38.2°F3.4°C 85% 1.4 mph ESE2.3 kmh ESE 2.5 mph4.0 kmh 30.50 in1032.8 mb 0.00 in0.0 mm 0.00 in0.0 mm 0.00 in0.0 mm
06:00 PM 42.1°F5.6°C 37.9°F3.3°C 85% 1.4 mph NE2.3 kmh NE 4.2 mph6.8 kmh 30.50 in1032.8 mb 0.00 in0.0 mm 0.00 in0.0 mm 0.00 in0.0 mm
06:10 PM 41.9°F5.5°C 37.7°F3.2°C 85% 0.4 mph W0.6 kmh W 1.7 mph2.7 kmh 30.50 in1032.8 mb 0.00 in0.0 mm 0.00 in0.0 mm 0.00 in0.0 mm
06:20 PM 41.5°F5.3°C 37.4°F3.0°C 85% 0.4 mph E0.6 kmh E 1.7 mph2.7 kmh 30.50 in1032.8 mb 0.00 in0.0 mm 0.00 in0.0 mm 0.00 in0.0 mm
06:30 PM 41.2°F5.1°C 37.0°F2.8°C 85% 0.2 mph S0.3 kmh S 3.4 mph5.5 kmh 30.50 in1032.8 mb 0.00 in0.0 mm 0.00 in0.0 mm 0.00 in0.0 mm
06:40 PM 41.2°F5.1°C 37.0°F2.8°C 85% 0.3 mph SW0.5 kmh SW 4.2 mph6.8 kmh 30.50 in1032.8 mb 0.00 in0.0 mm 0.00 in0.0 mm 0.00 in0.0 mm
06:50 PM 41.0°F5.0°C 36.8°F2.7°C 85% 0.6 mph S1.0 kmh S 3.4 mph5.5 kmh 30.50 in1032.8 mb 0.00 in0.0 mm 0.00 in0.0 mm 0.00 in0.0 mm
07:00 PM 41.0°F5.0°C 37.1°F2.8°C 86% 0.2 mph W0.3 kmh W 1.7 mph2.7 kmh 30.49 in1032.5 mb 0.00 in0.0 mm 0.00 in0.0 mm 0.00 in0.0 mm
07:10 PM 40.8°F4.9°C 37.0°F2.8°C 86% 0.1 mph S0.2 kmh S 1.7 mph2.7 kmh 30.49 in1032.5 mb 0.00 in0.0 mm 0.00 in0.0 mm 0.00 in0.0 mm
07:20 PM 41.0°F5.0°C 37.1°F2.8°C 86% 0.4 mph NW0.6 kmh NW 2.5 mph4.0 kmh 30.49 in1032.5 mb 0.00 in0.0 mm 0.00 in0.0 mm 0.00 in0.0 mm
07:30 PM 41.0°F5.0°C 37.1°F2.8°C 86% 1.5 mph SSW2.4 kmh SSW 3.4 mph5.5 kmh 30.49 in1032.5 mb 0.00 in0.0 mm 0.00 in0.0 mm 0.00 in0.0 mm
07:40 PM 41.0°F5.0°C 37.1°F2.8°C 86% 1.4 mph SW2.3 kmh SW 2.5 mph4.0 kmh 30.49 in1032.5 mb 0.00 in0.0 mm 0.00 in0.0 mm 0.00 in0.0 mm
07:50 PM 41.0°F5.0°C 37.1°F2.8°C 86% 0.4 mph S0.6 kmh S 1.7 mph2.7 kmh 30.49 in1032.5 mb 0.00 in0.0 mm 0.00 in0.0 mm 0.00 in0.0 mm
08:00 PM 41.0°F5.0°C 37.4°F3.0°C 87% 1.3 mph W2.1 kmh W 2.5 mph4.0 kmh 30.49 in1032.5 mb 0.00 in0.0 mm 0.00 in0.0 mm 0.00 in0.0 mm
08:10 PM 41.2°F5.1°C 37.6°F3.1°C 87% 1.6 mph NW2.6 kmh NW 4.2 mph6.8 kmh 30.48 in1032.2 mb 0.00 in0.0 mm 0.00 in0.0 mm 0.00 in0.0 mm
08:20 PM 41.2°F5.1°C 37.6°F3.1°C 87% 1.7 mph E2.7 kmh E 3.4 mph5.5 kmh 30.49 in1032.5 mb 0.00 in0.0 mm 0.00 in0.0 mm 0.00 in0.0 mm
08:30 PM 41.2°F5.1°C 37.6°F3.1°C 87% 0.7 mph NW1.1 kmh NW 2.5 mph4.0 kmh 30.48 in1032.2 mb 0.00 in0.0 mm 0.00 in0.0 mm 0.00 in0.0 mm
08:40 PM 41.2°F5.1°C 37.6°F3.1°C 87% 0.9 mph NW1.4 kmh NW 2.5 mph4.0 kmh 30.48 in1032.2 mb 0.00 in0.0 mm 0.00 in0.0 mm 0.00 in0.0 mm
08:50 PM 41.2°F5.1°C 37.6°F3.1°C 87% 0.9 mph N1.4 kmh N 4.2 mph6.8 kmh 30.48 in1032.2 mb 0.00 in0.0 mm 0.00 in0.0 mm 0.00 in0.0 mm
09:00 PM 41.4°F5.2°C 38.1°F3.4°C 88% 1.7 mph NW2.7 kmh NW 3.4 mph5.5 kmh 30.48 in1032.2 mb 0.00 in0.0 mm 0.00 in0.0 mm 0.00 in0.0 mm
09:10 PM 41.4°F5.2°C 38.1°F3.4°C 88% 2.7 mph SE4.3 kmh SE 3.4 mph5.5 kmh 30.48 in1032.2 mb 0.00 in0.0 mm 0.00 in0.0 mm 0.00 in0.0 mm
09:20 PM 41.5°F5.3°C 38.3°F3.5°C 88% 3.5 mph WSW5.6 kmh WSW 4.9 mph7.9 kmh 30.48 in1032.2 mb 0.00 in0.0 mm 0.00 in0.0 mm 0.00 in0.0 mm
09:30 PM 41.5°F5.3°C 38.3°F3.5°C 88% 3.3 mph W5.3 kmh W 5.9 mph9.5 kmh 30.48 in1032.2 mb 0.00 in0.0 mm 0.00 in0.0 mm 0.00 in0.0 mm
09:40 PM 41.5°F5.3°C 38.3°F3.5°C 88% 1.8 mph SE2.9 kmh SE 4.2 mph6.8 kmh 30.48 in1032.2 mb 0.00 in0.0 mm 0.00 in0.0 mm 0.00 in0.0 mm
09:50 PM 41.5°F5.3°C 38.3°F3.5°C 88% 2.4 mph S3.9 kmh S 5.9 mph9.5 kmh 30.48 in1032.2 mb 0.00 in0.0 mm 0.00 in0.0 mm 0.00 in0.0 mm
10:00 PM 41.4°F5.2°C 38.1°F3.4°C 88% 2.6 mph SW4.2 kmh SW 4.2 mph6.8 kmh 30.48 in1032.2 mb 0.00 in0.0 mm 0.00 in0.0 mm 0.00 in0.0 mm
10:10 PM 41.5°F5.3°C 38.3°F3.5°C 88% 2.1 mph WSW3.4 kmh WSW 4.9 mph7.9 kmh 30.48 in1032.2 mb 0.00 in0.0 mm 0.00 in0.0 mm 0.00 in0.0 mm
10:20 PM 41.7°F5.4°C 38.4°F3.6°C 88% 2.3 mph W3.7 kmh W 3.4 mph5.5 kmh 30.48 in1032.2 mb 0.00 in0.0 mm 0.00 in0.0 mm 0.00 in0.0 mm
10:30 PM 41.7°F5.4°C 38.4°F3.6°C 88% 2.1 mph S3.4 kmh S 4.2 mph6.8 kmh 30.48 in1032.2 mb 0.00 in0.0 mm 0.00 in0.0 mm 0.00 in0.0 mm
10:40 PM 41.9°F5.5°C 38.6°F3.7°C 88% 0.6 mph SW1.0 kmh SW 2.5 mph4.0 kmh 30.48 in1032.2 mb 0.00 in0.0 mm 0.00 in0.0 mm 0.00 in0.0 mm
10:50 PM 42.1°F5.6°C 38.8°F3.8°C 88% 1.5 mph SE2.4 kmh SE 4.2 mph6.8 kmh 30.47 in1031.8 mb 0.00 in0.0 mm 0.00 in0.0 mm 0.00 in0.0 mm
11:00 PM 41.9°F5.5°C 38.6°F3.7°C 88% 1.2 mph WSW1.9 kmh WSW 3.4 mph5.5 kmh 30.47 in1031.8 mb 0.00 in0.0 mm 0.00 in0.0 mm 0.00 in0.0 mm
11:10 PM 41.9°F5.5°C 38.6°F3.7°C 88% 2.2 mph NE3.5 kmh NE 3.4 mph5.5 kmh 30.47 in1031.8 mb 0.00 in0.0 mm 0.00 in0.0 mm 0.00 in0.0 mm
11:20 PM 41.5°F5.3°C 38.3°F3.5°C 88% 1.0 mph SW1.6 kmh SW 3.4 mph5.5 kmh 30.47 in1031.8 mb 0.00 in0.0 mm 0.00 in0.0 mm 0.00 in0.0 mm
11:30 PM 41.5°F5.3°C 38.3°F3.5°C 88% 2.0 mph NE3.2 kmh NE 3.4 mph5.5 kmh 30.45 in1031.2 mb 0.00 in0.0 mm 0.00 in0.0 mm 0.00 in0.0 mm
11:40 PM 41.4°F5.2°C 38.1°F3.4°C 88% 2.1 mph S3.4 kmh S 4.2 mph6.8 kmh 30.46 in1031.5 mb 0.00 in0.0 mm 0.00 in0.0 mm 0.00 in0.0 mm
11:50 PM 41.4°F5.2°C 38.1°F3.4°C 88% 3.3 mph NNW5.3 kmh NNW 4.9 mph7.9 kmh 30.46 in1031.5 mb 0.00 in0.0 mm 0.00 in0.0 mm 0.00 in0.0 mm